createdAt,value
2019-03-03T00:00:42.217Z,100661.13
2019-03-03T00:03:01.097Z,100672.86
2019-03-03T00:03:17.168Z,100659.81
2019-03-03T00:06:26.692Z,100659.38
2019-03-03T00:09:08.182Z,100657.62
2019-03-03T00:14:56.076Z,100641.13
2019-03-03T00:17:26.747Z,100638.94
2019-03-03T00:24:38.055Z,100626.34
2019-03-03T00:26:58.201Z,100624.62
2019-03-03T00:46:58.735Z,100620.26
2019-03-03T01:16:16.358Z,100601.59
2019-03-03T01:19:11.486Z,100603.77
2019-03-03T01:21:49.616Z,100600.28
2019-03-03T01:24:46.471Z,100607.22
2019-03-03T01:27:20.164Z,100605.05
2019-03-03T01:29:52.822Z,100606.80
2019-03-03T01:32:22.654Z,100606.34
2019-03-03T01:34:52.565Z,100598.95
2019-03-03T01:37:24.158Z,100600.27
2019-03-03T01:39:55.588Z,100585.91
2019-03-03T01:42:25.717Z,100580.25
2019-03-03T01:44:55.661Z,100578.97
2019-03-03T01:47:27.077Z,100573.30
2019-03-03T01:49:59.862Z,100567.66
2019-03-03T01:52:31.253Z,100564.59
2019-03-03T01:55:01.320Z,100562.85
2019-03-03T01:57:31.166Z,100563.70
2019-03-03T02:00:01.062Z,100562.81
2019-03-03T02:02:32.659Z,100560.61
2019-03-03T02:05:02.657Z,100561.02
2019-03-03T02:07:32.516Z,100558.42
2019-03-03T02:10:02.566Z,100561.01
2019-03-03T02:12:32.768Z,100557.06
2019-03-03T02:15:02.832Z,100554.86
2019-03-03T02:17:32.626Z,100548.81
2019-03-03T02:20:03.333Z,100550.11
2019-03-03T02:22:37.572Z,100539.25
2019-03-03T02:25:12.315Z,100531.86
2019-03-03T02:27:43.686Z,100528.39
2019-03-03T02:30:17.623Z,100526.23
2019-03-03T02:32:48.283Z,100531.84
2019-03-03T02:35:18.082Z,100526.62
2019-03-03T02:37:47.857Z,100520.11
2019-03-03T02:40:20.504Z,100517.52
2019-03-03T02:42:50.261Z,100520.58
2019-03-03T02:45:20.158Z,100518.41
2019-03-03T02:47:49.969Z,100509.75
2019-03-03T02:50:21.329Z,100505.03
2019-03-03T02:52:51.092Z,100504.59
2019-03-03T02:55:20.864Z,100498.98
2019-03-03T02:57:50.707Z,100495.07
2019-03-03T03:00:24.477Z,100494.22
2019-03-03T03:02:55.824Z,100498.98
2019-03-03T03:05:40.689Z,100485.59
2019-03-03T03:08:18.180Z,100487.75
2019-03-03T03:10:52.269Z,100489.47
2019-03-03T03:13:35.906Z,100480.81
2019-03-03T03:16:25.203Z,100480.83
2019-03-03T03:19:02.373Z,100475.61
2019-03-03T03:21:49.842Z,100465.67
2019-03-03T03:24:21.159Z,100463.94
2019-03-03T03:27:07.618Z,100468.71
2019-03-03T03:29:54.039Z,100469.16
2019-03-03T03:32:41.492Z,100456.98
2019-03-03T03:35:12.911Z,100459.59
2019-03-03T03:37:44.316Z,100455.28
2019-03-03T03:40:18.274Z,100464.80
2019-03-03T03:43:04.866Z,100463.94
2019-03-03T03:45:48.200Z,100457.43
2019-03-03T03:48:28.947Z,100444.00
2019-03-03T03:51:18.803Z,100427.52
2019-03-03T03:53:52.410Z,100420.98
2019-03-03T03:56:33.031Z,100416.22
2019-03-03T03:59:10.447Z,100401.45
2019-03-03T04:01:41.774Z,100407.55
2019-03-03T04:04:13.150Z,100414.05
2019-03-03T04:07:02.677Z,100416.20
2019-03-03T04:09:42.670Z,100409.70
2019-03-03T04:12:19.653Z,100404.92
2019-03-03T04:14:53.685Z,100395.36
2019-03-03T04:17:39.918Z,100386.69
2019-03-03T04:20:20.297Z,100384.94
2019-03-03T04:22:54.214Z,100383.65
2019-03-03T04:25:34.335Z,100378.44
2019-03-03T04:28:21.704Z,100372.36
2019-03-03T04:30:53.073Z,100374.53
2019-03-03T04:33:42.404Z,100364.53
2019-03-03T04:36:13.889Z,100363.25
2019-03-03T04:38:45.263Z,100361.07
2019-03-03T04:41:22.853Z,100364.98
2019-03-03T04:44:00.054Z,100368.02
2019-03-03T04:46:46.331Z,100374.53
2019-03-03T04:49:17.647Z,100376.69
2019-03-03T04:52:05.189Z,100375.80
2019-03-03T04:54:52.780Z,100376.66
2019-03-03T04:57:36.569Z,100375.34
2019-03-03T05:00:13.127Z,100369.23
2019-03-03T05:02:47.495Z,100365.74
2019-03-03T05:05:18.815Z,100364.44
2019-03-03T05:07:53.185Z,100363.98
2019-03-03T05:10:24.533Z,100358.31
2019-03-03T05:12:58.631Z,100353.09
2019-03-03T05:15:46.139Z,100351.33
2019-03-03T05:18:17.512Z,100357.42
2019-03-03T05:20:51.399Z,100352.61
2019-03-03T05:23:21.212Z,100345.23
2019-03-03T05:25:51.007Z,100337.81
2019-03-03T05:28:20.824Z,100338.68
2019-03-03T05:30:50.607Z,100336.91
2019-03-03T05:33:20.400Z,100336.44
2019-03-03T05:35:50.187Z,100333.40
2019-03-03T05:38:19.939Z,100324.23
2019-03-03T05:40:49.779Z,100328.14
2019-03-03T05:43:19.535Z,100322.03
2019-03-03T05:45:50.124Z,100325.50
2019-03-03T05:48:19.917Z,100329.38
2019-03-03T05:50:49.820Z,100324.99
2019-03-03T05:53:20.102Z,100318.91
2019-03-03T05:55:49.911Z,100317.12
2019-03-03T05:58:19.654Z,100323.17
2019-03-03T06:00:49.458Z,100323.16
2019-03-03T06:03:19.189Z,100323.56
2019-03-03T06:05:48.924Z,100324.38
2019-03-03T06:08:18.719Z,100314.77
2019-03-03T06:10:48.452Z,100316.94
2019-03-03T06:13:18.192Z,100311.23
2019-03-03T06:15:47.994Z,100321.63
2019-03-03T06:18:17.730Z,100322.94
2019-03-03T06:20:47.528Z,100322.50
2019-03-03T06:23:17.269Z,100319.02
2019-03-03T06:25:47.045Z,100321.63
2019-03-03T06:28:16.808Z,100317.71
2019-03-03T06:30:48.266Z,100314.19
2019-03-03T06:33:18.053Z,100309.00
2019-03-03T06:35:47.824Z,100302.48
2019-03-03T06:38:17.637Z,100299.00
2019-03-03T06:40:47.413Z,100303.73
2019-03-03T06:43:17.211Z,100292.43
2019-03-03T06:45:46.992Z,100288.94
2019-03-03T06:48:16.750Z,100284.58
2019-03-03T06:50:46.522Z,100281.10
2019-03-03T06:53:16.316Z,100270.61
2019-03-03T06:55:46.150Z,100258.47
2019-03-03T06:58:15.903Z,100266.69
2019-03-03T07:00:45.682Z,100270.99
2019-03-03T07:03:15.470Z,100272.29
2019-03-03T07:05:45.220Z,100282.30
2019-03-03T07:08:15.020Z,100275.70
2019-03-03T07:10:44.757Z,100277.84
2019-03-03T07:13:14.567Z,100281.70
2019-03-03T07:15:44.370Z,100272.12
2019-03-03T07:18:14.204Z,100272.48
2019-03-03T07:20:43.971Z,100257.19
2019-03-03T07:23:13.782Z,100238.84
2019-03-03T07:25:43.545Z,100231.30
2019-03-03T07:28:13.290Z,100236.39
2019-03-03T07:30:43.088Z,100232.39
2019-03-03T07:33:13.950Z,100233.18
2019-03-03T07:35:43.791Z,100250.95
2019-03-03T07:38:13.533Z,100249.56
2019-03-03T07:40:43.408Z,100247.37
2019-03-03T07:43:13.140Z,100243.76
2019-03-03T07:45:42.924Z,100251.58
2019-03-03T07:48:12.674Z,100246.72
2019-03-03T07:50:42.629Z,100250.08
2019-03-03T07:53:12.357Z,100251.33
2019-03-03T07:55:42.151Z,100252.64
2019-03-03T07:58:11.933Z,100253.87
2019-03-03T08:00:41.706Z,100246.51
2019-03-03T08:03:11.479Z,100245.06
2019-03-03T08:05:41.921Z,100253.75
2019-03-03T08:08:11.729Z,100249.30
2019-03-03T08:10:41.499Z,100245.20
2019-03-03T08:13:11.269Z,100231.93
2019-03-03T08:15:41.051Z,100223.95
2019-03-03T08:18:10.784Z,100228.68
2019-03-03T08:20:40.597Z,100225.59
2019-03-03T08:23:32.434Z,100215.78
2019-03-03T08:30:32.931Z,100217.63
2019-03-03T08:32:22.757Z,100214.89
2019-03-03T08:35:07.572Z,100218.14
2019-03-03T08:37:46.249Z,100209.34
2019-03-03T08:40:25.557Z,100207.06
2019-03-03T08:43:07.081Z,100206.47
2019-03-03T08:46:12.794Z,100196.28
2019-03-03T08:48:57.711Z,100200.77
2019-03-03T08:52:11.966Z,100195.27
2019-03-03T08:54:36.327Z,100199.72
2019-03-03T08:57:45.858Z,100196.05
2019-03-03T09:00:15.728Z,100187.05
2019-03-03T09:02:53.004Z,100187.58
2019-03-03T09:05:35.578Z,100184.65
2019-03-03T09:08:33.031Z,100182.17
2019-03-03T09:14:18.060Z,100169.97
2019-03-03T09:17:06.599Z,100170.87
2019-03-03T09:19:59.845Z,100172.59
2019-03-03T09:22:50.606Z,100176.98
2019-03-03T09:25:47.358Z,100176.23
2019-03-03T09:28:43.035Z,100184.53
2019-03-03T09:32:53.028Z,100171.44
2019-03-03T09:34:13.017Z,100167.80
2019-03-03T09:37:04.477Z,100166.59
2019-03-03T09:39:39.609Z,100169.66
2019-03-03T09:42:16.539Z,100169.79
2019-03-03T09:45:07.105Z,100159.41
2019-03-03T09:51:23.859Z,100152.53
2019-03-03T09:57:04.259Z,100145.86
2019-03-03T10:00:11.725Z,100146.80
2019-03-03T10:03:42.854Z,100139.06
2019-03-03T10:06:21.123Z,100133.07
2019-03-03T10:12:38.329Z,100128.92
2019-03-03T10:15:25.918Z,100123.97
2019-03-03T10:17:59.457Z,100115.27
2019-03-03T10:20:40.777Z,100115.34
2019-03-03T10:23:19.813Z,100108.50
2019-03-03T10:26:27.242Z,100110.19
2019-03-03T10:32:13.997Z,100109.67
2019-03-03T10:35:24.680Z,100117.19
2019-03-03T10:37:58.224Z,100123.95
2019-03-03T10:43:33.533Z,100129.32
2019-03-03T10:46:05.089Z,100127.55
2019-03-03T10:48:54.161Z,100110.77
2019-03-03T10:51:32.595Z,100111.17
2019-03-03T10:54:16.917Z,100110.58
2019-03-03T10:56:52.244Z,100097.73
2019-03-03T10:59:27.007Z,100089.79
2019-03-03T11:02:17.603Z,100092.23
2019-03-03T11:05:05.497Z,100097.38
2019-03-03T11:07:52.110Z,100095.91
2019-03-03T11:10:35.404Z,100074.66
2019-03-03T11:13:17.963Z,100070.88
2019-03-03T11:15:59.009Z,100075.98
2019-03-03T11:18:38.613Z,100082.49
2019-03-03T11:21:14.292Z,100083.68
2019-03-03T11:23:59.963Z,100075.16
2019-03-03T11:26:48.398Z,100067.83
2019-03-03T11:29:34.737Z,100063.77
2019-03-03T11:32:20.517Z,100051.34
2019-03-03T11:35:11.270Z,100047.06
2019-03-03T11:37:48.821Z,100036.89
2019-03-03T11:40:39.873Z,100046.11
2019-03-03T11:43:42.038Z,100041.66
2019-03-03T11:46:43.128Z,100037.30
2019-03-03T11:49:34.565Z,100033.34
2019-03-03T11:52:08.875Z,100041.39
2019-03-03T11:54:45.364Z,100043.84
2019-03-03T11:57:42.550Z,100049.84
2019-03-03T12:00:34.962Z,100047.62
2019-03-03T12:03:27.314Z,100042.80
2019-03-03T12:10:08.815Z,100034.34
2019-03-03T12:12:56.707Z,100025.26
2019-03-03T12:15:40.496Z,100028.98
2019-03-03T12:18:32.411Z,100026.64
2019-03-03T12:21:20.285Z,100015.86
2019-03-03T12:24:00.392Z,100021.03
2019-03-03T12:26:55.269Z,100011.91
2019-03-03T12:29:34.040Z,100015.77
2019-03-03T12:32:08.703Z,100013.98
2019-03-03T12:34:47.743Z,100010.25
2019-03-03T12:37:28.914Z,100021.47
2019-03-03T12:40:15.351Z,100017.66
2019-03-03T12:42:54.485Z,100007.88
2019-03-03T12:45:31.583Z,100005.00
2019-03-03T12:48:20.478Z,100008.69
2019-03-03T12:50:54.077Z,100006.64
2019-03-03T12:53:31.408Z,99994.47
2019-03-03T12:56:21.217Z,100006.42
2019-03-03T12:59:04.864Z,100002.58
2019-03-03T13:01:43.641Z,99998.19
2019-03-03T13:04:18.067Z,100000.50
2019-03-03T13:07:16.375Z,99996.86
2019-03-03T13:10:06.967Z,99999.59
2019-03-03T13:13:13.660Z,99994.60
2019-03-03T13:15:26.899Z,99995.41
2019-03-03T13:18:10.553Z,99990.36
2019-03-03T13:21:02.799Z,99993.69
2019-03-03T13:26:52.787Z,99992.61
2019-03-03T13:36:02.403Z,99999.04
2019-03-03T13:38:42.537Z,99998.55
2019-03-03T13:41:37.761Z,100001.55
2019-03-03T13:47:23.724Z,99998.66
2019-03-03T13:50:09.823Z,100000.73
2019-03-03T13:52:42.050Z,100001.58
2019-03-03T13:55:31.753Z,99997.19
2019-03-03T13:58:05.514Z,99999.05
2019-03-03T14:00:38.770Z,100001.23
2019-03-03T14:06:06.002Z,100004.06
2019-03-03T14:08:41.556Z,99994.16
2019-03-03T14:11:34.445Z,99988.69
2019-03-03T14:14:03.619Z,99990.83
2019-03-03T14:16:49.918Z,99990.09
2019-03-03T14:22:37.888Z,99993.58
2019-03-03T14:25:36.332Z,99986.39
2019-03-03T14:28:23.244Z,99985.69
2019-03-03T14:37:50.259Z,99975.78
2019-03-03T14:40:41.262Z,99983.22
2019-03-03T14:43:20.710Z,99984.95
2019-03-03T14:45:52.044Z,99980.59
2019-03-03T14:48:31.392Z,99976.23
2019-03-03T14:51:01.288Z,99978.00
2019-03-03T14:53:31.109Z,99979.02
2019-03-03T14:56:08.146Z,99977.67
2019-03-03T14:58:43.367Z,99973.77
2019-03-03T15:01:14.886Z,99972.49
2019-03-03T15:03:44.753Z,99966.70
2019-03-03T15:06:23.936Z,99962.42
2019-03-03T15:08:46.265Z,99964.31
2019-03-03T15:11:16.231Z,99966.03
2019-03-03T15:13:46.068Z,99963.94
2019-03-03T15:16:16.104Z,99966.94
2019-03-03T15:18:46.139Z,99962.09
2019-03-03T15:21:24.701Z,99965.17
2019-03-03T15:23:50.273Z,99957.89
2019-03-03T15:26:33.581Z,99953.58
2019-03-03T15:29:38.234Z,99952.42
2019-03-03T15:32:08.115Z,99961.02
2019-03-03T15:38:00.233Z,99953.44
2019-03-03T15:40:39.603Z,99952.01
2019-03-03T15:43:37.266Z,99951.34
2019-03-03T15:46:05.526Z,99948.55
2019-03-03T15:48:38.252Z,99954.75
2019-03-03T15:51:12.110Z,99949.50
2019-03-03T16:03:15.716Z,99934.56
2019-03-03T16:09:01.236Z,99939.83
2019-03-03T16:10:46.879Z,99950.85
2019-03-03T16:14:46.437Z,99937.53
2019-03-03T16:17:49.218Z,99936.74
2019-03-03T16:20:42.610Z,99933.75
2019-03-03T16:23:21.597Z,99934.69
2019-03-03T16:25:53.135Z,99938.59
2019-03-03T16:29:00.220Z,99933.86
2019-03-03T16:32:01.251Z,99924.73
2019-03-03T16:35:13.340Z,99926.50
2019-03-03T16:37:48.549Z,99922.11
2019-03-03T16:40:39.896Z,99931.27
2019-03-03T16:47:06.130Z,99917.02
2019-03-03T16:52:53.945Z,99919.94
2019-03-03T17:43:51.953Z,99908.72
2019-03-03T17:50:18.871Z,99896.94
2019-03-03T17:53:02.617Z,99896.14
2019-03-03T17:55:48.257Z,99901.33
2019-03-03T18:22:01.240Z,99858.63
2019-03-03T18:40:15.188Z,99853.38
2019-03-03T18:49:38.826Z,99846.95
2019-03-03T18:52:18.708Z,99843.84
2019-03-03T18:54:53.254Z,99840.39
2019-03-03T19:00:26.126Z,99832.02
2019-03-03T19:03:38.347Z,99827.86
2019-03-03T19:09:30.715Z,99819.08
2019-03-03T19:12:05.506Z,99815.96
2019-03-03T19:14:52.199Z,99813.71
2019-03-03T19:17:22.549Z,99811.24
2019-03-03T19:19:55.503Z,99816.86
2019-03-03T19:22:29.208Z,99816.34
2019-03-03T19:25:27.697Z,99811.08
2019-03-03T19:27:50.975Z,99811.08
2019-03-03T19:30:29.986Z,99812.02
2019-03-03T19:33:48.103Z,99804.92
2019-03-03T19:42:11.201Z,99808.87
2019-03-03T19:48:14.187Z,99797.87
2019-03-03T19:50:50.875Z,99796.97
2019-03-03T19:53:26.568Z,99796.89
2019-03-03T19:55:57.882Z,99794.27
2019-03-03T19:58:31.069Z,99787.66
2019-03-03T20:01:04.752Z,99785.06
2019-03-03T20:03:36.763Z,99777.59
2019-03-03T20:06:08.639Z,99775.88
2019-03-03T20:08:38.679Z,99782.44
2019-03-03T20:11:13.611Z,99781.08
2019-03-03T20:13:46.828Z,99774.88
2019-03-03T20:16:22.860Z,99774.02
2019-03-03T20:18:57.528Z,99767.95
2019-03-03T20:21:29.241Z,99770.08
2019-03-03T20:23:59.610Z,99764.46
2019-03-03T20:26:32.196Z,99766.63
2019-03-03T20:29:11.740Z,99760.52
2019-03-03T20:31:42.322Z,99763.55
2019-03-03T20:34:24.466Z,99767.91
2019-03-03T20:37:01.136Z,99768.31
2019-03-03T20:39:47.250Z,99766.09
2019-03-03T20:42:21.376Z,99761.30
2019-03-03T20:45:01.274Z,99763.02
2019-03-03T20:47:45.865Z,99758.67
2019-03-03T20:50:24.574Z,99757.28
2019-03-03T20:53:03.889Z,99758.50
2019-03-03T20:55:40.724Z,99751.19
2019-03-03T21:08:05.212Z,99729.36
2019-03-03T21:09:56.874Z,99722.50
2019-03-03T21:13:24.702Z,99726.23
2019-03-03T21:16:07.665Z,99727.55
2019-03-03T21:18:54.738Z,99725.30
2019-03-03T21:21:31.498Z,99724.39
2019-03-03T21:24:21.334Z,99720.50
2019-03-03T21:27:22.199Z,99719.34
2019-03-03T21:54:05.172Z,99691.95
2019-03-03T21:56:34.950Z,99689.55
2019-03-03T21:59:04.716Z,99677.72
2019-03-03T22:01:34.487Z,99675.00
2019-03-03T22:04:05.781Z,99672.38
2019-03-03T22:06:38.377Z,99667.13
2019-03-03T22:09:08.729Z,99672.06
2019-03-03T22:11:38.494Z,99671.16
2019-03-03T22:14:08.350Z,99668.53
2019-03-03T22:16:38.216Z,99665.91
2019-03-03T22:19:08.011Z,99661.91
2019-03-03T22:21:37.744Z,99663.23
2019-03-03T22:24:07.551Z,99661.91
2019-03-03T22:26:37.312Z,99667.13
2019-03-03T22:29:10.154Z,99665.73
2019-03-03T22:31:40.016Z,99659.12
2019-03-03T22:34:09.742Z,99649.56
2019-03-03T22:36:39.529Z,99651.28
2019-03-03T22:39:09.252Z,99646.44
2019-03-03T22:41:39.020Z,99641.18
2019-03-03T22:44:08.790Z,99642.09
2019-03-03T22:46:38.516Z,99639.46
2019-03-03T22:49:08.302Z,99639.91
2019-03-03T22:51:38.035Z,99642.22
2019-03-03T22:54:07.845Z,99629.48
2019-03-03T22:56:37.677Z,99627.72
2019-03-03T22:59:07.433Z,99630.72
2019-03-03T23:01:37.401Z,99622.38
2019-03-03T23:04:13.084Z,99627.59
2019-03-03T23:06:48.717Z,99620.34
2019-03-03T23:09:30.732Z,99618.52
2019-03-03T23:12:27.792Z,99620.74
2019-03-03T23:15:00.693Z,99619.84
2019-03-03T23:17:36.403Z,99614.09
2019-03-03T23:20:21.279Z,99608.06
2019-03-03T23:23:15.120Z,99603.27
2019-03-03T23:25:52.102Z,99601.95
2019-03-03T23:28:21.965Z,99597.20
2019-03-03T23:30:51.750Z,99597.55
2019-03-03T23:33:21.512Z,99599.77
2019-03-03T23:35:51.265Z,99592.84
2019-03-03T23:38:21.036Z,99590.67
2019-03-03T23:40:50.760Z,99591.98
2019-03-03T23:43:20.549Z,99589.44
2019-03-03T23:45:50.366Z,99579.84
2019-03-03T23:48:20.154Z,99581.56
2019-03-03T23:50:49.891Z,99579.03
2019-03-03T23:53:19.657Z,99581.61
2019-03-03T23:55:49.438Z,99577.09
2019-03-03T23:58:19.312Z,99577.49
